Salem, South Dakota
Current Conditions -  °F | °C
As of 6:30 PM on Saturday 20 Dec 2014 (Local Time) from KMDS Reporting Station
Moderate Fog Moderate Fog  
Wind Chill: 17°   Ceiling: 200
Heat Index: 28°   Visibility: 0.25mi
Dew Point: 28°   Wind: 16mph
Humidity: 100%   Direction: 170°S
Pressure: 29.97"   Gusts: NA
Location:  43.72°N, 97.39°W
Report Text: KMDS 210030Z AUTO 17014KT 1/4SM FZFG OVC002 M02/M02 A2997 RMK AO2
Loading
Personal Weather Stations






























Interactive Weather Map New forecast layout! Learn more

10-Day Weather Forecast

Advertisements
Track Severe Weather on mobile